Metar Aviation Weather Data FACT Cape Town International

23°C Temp
13°C Dewpoint
53% Humidity
Temperature
50 KM/H
31 MPH
27 KTS
180°
Due South

Wind Speed
Clear
Conditions
Pressure 1016.92 (hPa) - 30.03 (in)
Visibility 6.2 (mi) - 10.0 (km)

Current Conditions
FACT
Cape Town International
Metar :FACT 241200Z 18027KT CAVOK 23/13 Q1017 NOSIG
Thu 24th January 14:00 pm

Cape Town International
  Metar Aviation API Data Provided by https://www.checkwx.com/ PHP scripts by weather34.com ©2019